TAF KCOE
KCOE 280529Z 2806/2906 18010KT 6SM -RA BR BKN008 OVC018 WS020/21040KT FM281000 19008KT P6SM SCT015 BKN022 BKN200 WS020/23037KT FM281500 20011KT P6SM SCT025 BKN200 FM281900 22014G21KT P6SM SCT030 BKN200 FM290200 21010KT P6SM BKN040 OVC070=
METAR KCOE
WC KCOE
WS KCOE
WV KCOE